Latest Coastal Weather Observations for Flinders Island Airport

IDV60701

Issued at 7:41 pm EDT Saturday 10 December 2022 (issued every 10 minutes, with the page automatically refreshed every 10 minutes)

About coastal observations | Map of coastal stations | Coastal observations for VIC | Marine services | Other Formats
Station Details ID: 099005 Name: FLINDERS ISLAND AIRPORT Lat: -40.09 Lon: 148.00 Height: 9.0 m
Data from the previous 72 hours. | See also: Recent months at Flinders Island Airport
Date/Time
EDT
Wind Sea
Height
m
Swell Vis
km
Cloud Weather Temp
°C
Press
MSL
hPa
Rain since
9am
mm
Dir  Spd
kts
Gust
kts
Height
m
Period
s
Dir
10/07:30pm NNE 6 7 - - - - 10 Partly cloudy - 15.3 1014.6 0.0
10/07:00pm N 6 7 - - - - 10 Partly cloudy - 15.9 1014.4 0.0
10/06:30pm NE 7 9 - - - - 10 Partly cloudy - 16.4 1014.2 0.0
10/06:00pm SW 6 8 - - - - 10 Cloudy Showers 16.3 1014.5 0.0
10/05:30pm WSW 9 10 - - - - 10 Partly cloudy - 17.3 1014.9 0.0
10/05:00pm WSW 7 9 - - - - 10 Partly cloudy - 16.8 1015.0 0.0
10/04:30pm NE 6 8 - - - - 10 Partly cloudy - 16.8 1015.3 0.0
10/04:00pm NE 7 10 - - - - 10 Partly cloudy - 17.1 1015.4 0.0
10/03:30pm SW 4 5 - - - - 10 Cloudy - 16.6 1016.0 0.0
10/03:00pm SSW 7 9 - - - - 10 Cloudy - 16.2 1016.3 0.0
10/02:30pm SW 7 9 - - - - 10 Partly cloudy - 16.4 1016.6 0.0
10/02:00pm SW 8 10 - - - - 10 Partly cloudy - 17.2 1016.8 0.0
10/01:30pm WSW 8 8 - - - - 10 Partly cloudy - 17.7 1016.9 0.0
10/01:00pm SSW 9 11 - - - - 10 Partly cloudy - 16.9 1016.9 0.0
10/12:30pm SSW 9 13 - - - - 10 Partly cloudy - 16.5 1017.1 0.0
10/12:00pm SSW 8 9 - - - - 10 - - 17.4 1017.4 0.0
10/11:30am SSW 8 10 - - - - 10 - - 17.5 1017.7 0.0
10/11:00am SW 9 10 - - - - 10 Partly cloudy - 16.1 1017.9 0.0
10/10:30am E 2 6 - - - - 10 Partly cloudy - 16.6 1017.8 0.0
10/10:00am ESE 5 7 - - - - 10 Partly cloudy - 16.4 1017.9 0.0
10/09:30am SE 5 8 - - - - 10 Partly cloudy - 15.8 1018.0 0.0
10/09:00am ESE 5 8 - - - - 10 Mostly cloudy - 16.5 1018.0 0.0
10/08:30am ENE 5 7 - - - - 10 Partly cloudy - 15.3 1018.0 0.0
10/08:00am ENE 3 6 - - - - 10 - - 16.1 1017.9 0.0
10/07:30am NE 5 6 - - - - 10 Partly cloudy - 15.1 1017.7 0.0
10/07:00am NNE 4 5 - - - - 10 Cloudy - 14.5 1017.7 0.0
10/06:30am NE 4 5 - - - - 10 Partly cloudy - 13.2 1017.8 0.0
10/06:00am NE 5 6 - - - - 10 Cloudy - 11.8 1017.5 0.0
10/05:30am NNE 3 5 - - - - 10 Partly cloudy - 12.0 1017.4 0.0
10/05:00am NNW 5 6 - - - - 10 Partly cloudy - 12.3 1017.1 0.0
10/04:30am N 6 7 - - - - 10 Cloudy - 12.0 1017.1 0.0
10/04:00am N 7 8 - - - - 10 Cloudy - 12.2 1017.0 0.0
10/03:30am NE 4 5 - - - - 10 Partly cloudy - 12.4 1017.1 0.0
10/03:00am CALM 0 0 - - - - 10 Cloudy - 12.5 1017.2 0.0
10/02:30am ENE 4 4 - - - - 10 Partly cloudy - 12.4 1017.3 0.0
10/02:00am E 5 6 - - - - 10 Partly cloudy - 12.2 1017.4 0.0
10/01:30am ENE 6 7 - - - - 10 Cloudy - 12.0 1017.4 0.0
10/01:00am ENE 6 7 - - - - 10 Partly cloudy - 11.3 1017.5 0.0
10/12:30am NE 5 6 - - - - 10 Partly cloudy - 11.8 1017.7 0.0
10/12:00am NE 5 6 - - - - 10 Cloudy - 10.9 1017.7 0.0
 
Date/Time
EDT
Wind Sea
Height
m
Swell Vis
km
Cloud Weather Temp
°C
Press
MSL
hPa
Rain since
9am
mm
Dir  Spd
kts
Gust
kts
Height
m
Period
s
Dir
09/11:30pm NE 4 4 - - - - 10 Partly cloudy - 11.3 1017.6 0.0
09/11:00pm NE 5 6 - - - - 10 Partly cloudy - 11.5 1017.8 0.0
09/10:30pm WSW 6 8 - - - - 10 Partly cloudy - 12.5 1017.8 0.0
09/10:00pm W 7 9 - - - - 10 Partly cloudy - 14.2 1017.9 0.0
09/09:30pm WNW 5 8 - - - - 10 Partly cloudy - 13.5 1017.7 0.0
09/09:00pm WNW 6 7 - - - - 10 Mostly cloudy - 13.7 1017.3 0.0
09/08:30pm W 7 9 - - - - 10 Partly cloudy - 13.8 1016.9 0.0
09/08:00pm WNW 8 10 - - - - 10 Partly cloudy - 14.6 1016.7 0.0
09/07:30pm WNW 11 15 - - - - 10 Partly cloudy - 15.2 1016.7 0.0
09/07:00pm WNW 10 14 - - - - 10 Partly cloudy - 15.3 1016.4 0.0
09/06:30pm W 12 16 - - - - 10 - - 15.5 1016.3 0.0
09/06:00pm W 14 17 - - - - 10 Mostly cloudy - 15.8 1016.3 0.0
09/05:30pm W 15 18 - - - - 10 Partly cloudy - 15.3 1016.3 0.0
09/05:00pm W 15 17 - - - - 10 Partly cloudy - 15.7 1016.4 0.0
09/04:30pm WSW 15 19 - - - - 10 Partly cloudy - 15.5 1016.4 0.0
09/04:00pm WSW 15 17 - - - - 10 Partly cloudy - 16.2 1016.4 0.0
09/03:30pm WSW 14 18 - - - - 10 Partly cloudy - 15.8 1016.4 0.0
09/03:00pm WSW 15 18 - - - - 10 - - 15.8 1016.3 0.0
09/02:30pm W 12 16 - - - - 10 - - 15.4 1016.3 0.0
09/02:00pm WSW 11 14 - - - - 10 - - 15.3 1016.3 0.0
09/01:30pm WSW 13 16 - - - - 10 - - 15.2 1016.2 0.0
09/01:00pm W 11 14 - - - - 10 - - 15.2 1016.2 0.0
09/12:30pm WSW 12 16 - - - - 10 Partly cloudy - 14.9 1016.2 0.0
09/12:00pm WSW 11 14 - - - - 10 Partly cloudy - 14.7 1016.3 0.0
09/11:30am SW 13 16 - - - - 10 Partly cloudy - 14.3 1016.0 0.0
09/11:00am SW 11 15 - - - - 10 Partly cloudy - 14.6 1016.0 0.0
09/10:30am SSW 15 19 - - - - 10 Partly cloudy - 14.4 1015.9 0.0
09/10:00am S 14 22 - - - - 10 Partly cloudy - 13.9 1015.8 0.0
09/09:30am S 15 22 - - - - 10 Partly cloudy - 13.7 1015.8 0.0
09/09:00am S 15 22 - - - - 10 - - 13.5 1015.5 0.0
09/08:37am S 15 27 - - - - 10 - - 13.3 1015.3 0.0
09/08:30am S 15 21 - - - - 10 - - 13.4 1015.4 0.0
09/08:00am S 11 18 - - - - 10 - - 12.6 1015.5 0.0
09/07:30am SSE 9 14 - - - - 10 - - 11.8 1015.4 0.0
09/07:00am S 13 18 - - - - 10 - - 11.2 1015.1 0.0
09/06:30am S 11 17 - - - - 10 - - 10.4 1014.8 0.0
09/06:00am SE 7 15 - - - - 10 - - 9.2 1014.6 0.0
09/05:30am SE 8 13 - - - - 10 - - 9.1 1014.4 0.0
09/05:00am SE 8 13 - - - - 10 - - 8.7 1014.0 0.0
09/04:30am SE 6 9 - - - - 10 - - 8.0 1013.8 0.0
09/04:00am SE 7 12 - - - - 10 - - 9.2 1013.8 0.0
09/03:30am SSE 10 14 - - - - 10 - - 10.0 1013.7 0.0
09/03:00am SSE 10 16 - - - - 10 - - 10.2 1013.4 0.0
09/02:30am SSE 9 16 - - - - 10 Cloudy - 9.8 1013.4 0.0
09/02:00am SE 6 10 - - - - 10 Cloudy - 10.7 1013.3 0.0
09/01:30am ESE 4 6 - - - - 10 Partly cloudy - 10.3 1013.1 0.0
09/01:00am ESE 4 5 - - - - 10 Partly cloudy - 10.3 1013.0 0.0
09/12:30am E 5 6 - - - - 10 Partly cloudy - 11.0 1013.0 0.0
09/12:00am E 5 6 - - - - 10 Mostly clear - 11.0 1012.8 0.0
 
Date/Time
EDT
Wind Sea
Height
m
Swell Vis
km
Cloud Weather Temp
°C
Press
MSL
hPa
Rain since
9am
mm
Dir  Spd
kts
Gust
kts
Height
m
Period
s
Dir
08/11:30pm SE 5 8 - - - - 10 Partly cloudy - 11.7 1012.4 0.0
08/11:00pm ESE 6 10 - - - - 10 Partly cloudy - 11.9 1012.1 0.0
08/10:30pm E 7 13 - - - - 10 Partly cloudy - 12.5 1011.9 0.0
08/10:00pm E 8 14 - - - - 10 Partly cloudy - 12.7 1011.5 0.0
08/09:30pm E 10 16 - - - - 10 Partly cloudy - 13.1 1010.9 0.0
08/09:00pm WSW 17 20 - - - - 10 Partly cloudy - 14.7 1010.1 0.0
08/08:30pm WSW 16 19 - - - - 10 Partly cloudy - 14.4 1009.9 0.0
08/08:00pm WSW 18 22 - - - - 10 Partly cloudy - 14.2 1009.8 0.0
08/07:30pm WSW 21 27 - - - - 10 - - 14.7 1009.4 0.0
08/07:00pm WSW 20 25 - - - - 10 - - 15.3 1009.2 0.0
08/06:30pm WSW 22 27 - - - - 10 - - 15.3 1008.8 0.0
08/06:00pm WSW 23 28 - - - - 10 - - 15.5 1008.5 0.0
08/05:30pm WSW 24 28 - - - - 10 - - 15.7 1008.2 0.0
08/05:00pm WSW 21 27 - - - - 10 - - 16.2 1008.2 0.0
08/04:30pm WSW 21 25 - - - - 10 - - 16.2 1008.1 0.0
08/04:00pm WSW 22 27 - - - - 10 - - 16.2 1007.8 0.0
08/03:30pm W 21 25 - - - - 10 - - 16.1 1007.9 0.0
08/03:00pm W 20 24 - - - - 10 - - 15.7 1007.9 0.0
08/02:30pm WSW 21 26 - - - - 10 - - 16.0 1007.7 0.0
08/02:00pm WSW 22 29 - - - - 10 Partly cloudy - 15.8 1007.4 0.0
08/01:30pm WSW 23 29 - - - - 10 Cloudy - 15.4 1007.2 0.0
08/01:00pm WSW 22 27 - - - - 10 Cloudy - 15.1 1007.0 0.0
08/12:30pm WSW 22 27 - - - - 10 Partly cloudy - 15.2 1006.8 0.0
08/12:00pm WSW 22 26 - - - - 10 Mostly clear - 15.4 1006.6 0.0
08/11:30am WSW 22 28 - - - - 10 Partly cloudy - 15.0 1006.5 0.0
08/11:00am WSW 23 29 - - - - 10 Cloudy - 14.2 1006.0 0.0
08/10:30am SW 22 28 - - - - 10 Cloudy - 14.0 1005.7 0.0
08/10:00am SW 21 28 - - - - 10 Cloudy - 13.7 1005.2 0.0
08/09:30am SW 24 30 - - - - 10 Cloudy - 13.4 1004.7 0.0
08/09:00am SW 26 32 - - - - 10 Mostly cloudy - 13.1 1004.1 0.0
08/08:30am WSW 29 35 - - - - 10 Cloudy - 12.9 1003.4 0.0
08/08:00am WSW 26 36 - - - - 10 Cloudy - 12.5 1003.1 0.0
08/07:30am WSW 29 35 - - - - 10 Cloudy - 12.3 1002.4 0.0
08/07:00am WSW 28 36 - - - - 10 Cloudy - 12.2 1001.8 0.0
08/06:37am SW 28 38 - - - - 10 Cloudy - 12.0 1001.6 0.0
08/06:30am WSW 28 35 - - - - 10 Cloudy - 11.9 1001.5 0.0
08/06:00am WSW 32 39 - - - - 10 Cloudy - 11.8 1001.1 0.0
08/05:43am WSW 30 40 - - - - 10 Partly cloudy - 11.8 1000.8 0.0
08/05:30am WSW 33 42 - - - - 10 Cloudy - 11.9 1000.7 0.0
08/05:02am SW 28 38 - - - - 10 Partly cloudy - 12.0 1000.2 0.0
08/05:00am SW 29 36 - - - - 10 Partly cloudy - 12.1 1000.1 0.0
08/04:32am WSW 31 41 - - - - 10 Partly cloudy - 11.8 1000.0 0.0
08/04:30am WSW 32 41 - - - - 10 Partly cloudy - 11.6 1000.0 0.0
08/04:00am WSW 33 41 - - - - 10 Partly cloudy - 11.4 999.8 0.0
08/03:30am WSW 34 44 - - - - 10 Partly cloudy - 11.9 999.6 0.0
08/03:03am WSW 33 43 - - - - 10 Partly cloudy - 12.3 999.5 0.0
08/03:00am WSW 34 43 - - - - 10 Cloudy - 12.2 999.6 0.0
08/02:30am WSW 33 42 - - - - 10 Partly cloudy - 12.3 999.6 0.0
08/02:26am WSW 33 43 - - - - 10 Partly cloudy - 12.4 999.7 0.0
08/02:00am WSW 32 40 - - - - 10 Partly cloudy - 12.3 999.5 0.0
08/01:30am W 31 38 - - - - 10 Partly cloudy - 12.3 999.5 0.0
08/01:00am W 27 34 - - - - 10 Partly cloudy - 12.1 999.4 0.0
08/12:30am W 31 36 - - - - 10 Partly cloudy - 12.9 999.6 0.0
08/12:00am W 28 34 - - - - 10 Cloudy - 13.2 999.7 0.0
 
Date/Time
EDT
Wind Sea
Height
m
Swell Vis
km
Cloud Weather Temp
°C
Press
MSL
hPa
Rain since
9am
mm
Dir  Spd
kts
Gust
kts
Height
m
Period
s
Dir
07/11:30pm WSW 29 34 - - - - 10 Partly cloudy - 13.5 999.8 0.0
07/11:00pm W 24 30 - - - - 10 Partly cloudy - 13.5 999.9 0.0
07/10:30pm W 21 26 - - - - 10 Partly cloudy - 13.6 1000.0 0.0
07/10:00pm W 22 29 - - - - 10 Partly cloudy - 13.6 1000.2 0.0
07/09:30pm W 19 27 - - - - 10 Partly cloudy - 13.5 1000.2 0.0
07/09:26pm W 22 32 - - - - 10 Partly cloudy - 13.5 1000.2 0.0
07/09:00pm W 24 31 - - - - 10 Mostly cloudy - 14.1 1000.0 0.0
07/08:30pm W 25 33 - - - - 10 Partly cloudy - 14.1 999.8 0.0
07/08:00pm W 27 34 - - - - 10 - - 14.3 999.6 0.0

Other formats

Comma delimited format used in spreadsheet applications
http://www.bom.gov.au/fwo/IDV60701/IDV60701.94980.axf

JavaScript Object Notation format (JSON) in row-major order
http://www.bom.gov.au/fwo/IDV60701/IDV60701.94980.json

Data quality

Most of these data are generated automatically and are frequently updated. Quality checks on data are not normally performed. It is possible for incorrect values to appear. Refer to information at About Latest Weather Observations and please check the disclaimer before using these data.